Time;durP1;ratioP1;P1;durP2;ratioP2;P2;SDS_P1;SDS_P2;PMS_P1;PMS_P2;Temp;Humidity;BMP_temperature;BMP_pressure;BME280_temperature;BME280_humidity;BME280_pressure;Samples;Min_cycle;Max_cycle;Signal;HPM_P1;HPM_P2
2022/01/03 00:00:26;;;;;;;;;;;;;;;0.48;98.49;98571.42;1639725;87;21306;-76
2022/01/03 00:02:55;;;;;;;;;;;;;;;0.48;98.53;98565.48;1639592;87;20442;-74
2022/01/03 00:05:23;;;;;;;;;;;;;;;0.50;98.71;98559.27;1651652;87;20150;-72
2022/01/03 00:07:49;;;;;;;;;;;;;;;0.52;98.87;98553.05;1653149;87;20162;-72
2022/01/03 00:10:18;;;;;;;;;;;;;;;0.55;99.38;98555.20;1653102;87;20110;-74
2022/01/03 00:12:46;;;;;;;;;;;;;;;0.57;99.56;98548.98;1653104;86;20123;-74
2022/01/03 00:15:14;;;;;;;;;;;;;;;0.58;100.00;98549.22;1653090;87;20102;-74
2022/01/03 00:17:41;;;;;;;;;;;;;;;0.58;100.00;98534.91;1653166;87;20102;-74
2022/01/03 00:20:10;;;;;;;;;;;;;;;0.58;100.00;98528.97;1653041;86;20098;-72
2022/01/03 00:22:44;;;;;;;;;;;;;;;0.60;100.00;98524.64;1653116;87;20131;-73
2022/01/03 00:25:16;;;;;;;;;;;;;;;0.61;100.00;98503.30;1653198;87;21114;-73
2022/01/03 00:27:49;;;;;;;;;;;;;;;0.61;100.00;98504.11;1653133;86;20166;-73
2022/01/03 00:30:16;;;;;;;;;;;;;;;0.62;100.00;98498.16;1653060;87;20154;-73
2022/01/03 00:32:44;;;;;;;;;;;;;;;0.62;100.00;98490.88;1650524;86;20106;-73
2022/01/03 00:35:13;;;;;;;;;;;;;;;0.61;100.00;98486.55;1649845;87;20173;-74
2022/01/03 00:37:42;;;;;;;;;;;;;;;0.61;100.00;98482.50;1631607;87;21197;-73
2022/01/03 00:40:09;;;;;;;;;;;;;;;0.62;100.00;98471.16;1649790;87;20107;-73
2022/01/03 00:42:36;;;;;;;;;;;;;;;0.61;100.00;98466.84;1649822;87;20122;-73
2022/01/03 00:45:03;;;;;;;;;;;;;;;0.59;100.00;98472.52;1649800;87;20576;-73
2022/01/03 00:47:32;;;;;;;;;;;;;;;0.60;100.00;98456.58;1649782;87;20106;-72
2022/01/03 00:50:04;;;;;;;;;;;;;;;0.61;100.00;98458.73;1649789;87;21155;-73
2022/01/03 00:52:31;;;;;;;;;;;;;;;0.61;100.00;98439.83;1649752;87;20094;-73
2022/01/03 00:54:57;;;;;;;;;;;;;;;0.61;100.00;98446.04;1649760;87;20457;-73
2022/01/03 00:57:34;;;;;;;;;;;;;;;0.63;100.00;98441.17;1649758;87;20610;-73
2022/01/03 01:00:09;;;;;;;;;;;;;;;0.65;100.00;98432.79;1632828;87;20103;-73
2022/01/03 01:02:38;;;;;;;;;;;;;;;0.66;100.00;98428.45;1650137;87;20729;-73
2022/01/03 01:05:05;;;;;;;;;;;;;;;0.69;100.00;98412.78;1649801;87;20437;-72
2022/01/03 01:07:33;;;;;;;;;;;;;;;0.71;100.00;98407.36;1649777;87;20128;-72
2022/01/03 01:10:01;;;;;;;;;;;;;;;0.74;100.00;98412.75;1649773;87;20197;-72
2022/01/03 01:12:29;;;;;;;;;;;;;;;0.77;100.00;98410.30;1649835;87;20470;-72
2022/01/03 01:14:55;;;;;;;;;;;;;;;0.78;100.00;98401.11;1649763;87;22168;-73
2022/01/03 01:17:23;;;;;;;;;;;;;;;0.80;100.00;98400.29;1649773;87;20273;-73
2022/01/03 01:19:49;;;;;;;;;;;;;;;0.83;100.00;98380.02;1607986;87;20194;-73
2022/01/03 01:22:16;;;;;;;;;;;;;;;0.83;100.00;98382.17;1649832;87;20751;-72
2022/01/03 01:25:09;;;;;;;;;;;;;;;0.83;100.00;98374.06;1649822;87;20115;-72
2022/01/03 01:30:03;;;;;;;;;;;;;;;0.82;100.00;98362.19;1649951;87;20130;-72
2022/01/03 01:32:30;;;;;;;;;;;;;;;0.79;100.00;98359.50;1649789;87;20133;-72
2022/01/03 01:34:57;;;;;;;;;;;;;;;0.79;100.00;98341.13;1649779;87;20094;-72
2022/01/03 01:37:23;;;;;;;;;;;;;;;0.78;100.00;98335.47;1607991;87;20106;-72
2022/01/03 01:39:50;;;;;;;;;;;;;;;0.78;100.00;98330.06;1629239;87;21071;-72
2022/01/03 01:42:18;;;;;;;;;;;;;;;0.76;100.00;98331.70;1608057;87;20078;-72
2022/01/03 01:44:48;;;;;;;;;;;;;;;0.78;100.00;98324.66;1650095;87;20106;-72
2022/01/03 01:47:14;;;;;;;;;;;;;;;0.76;100.00;98309.28;1649759;87;20242;-72
2022/01/03 01:49:45;;;;;;;;;;;;;;;0.74;100.00;98306.86;1650091;87;20094;-72
2022/01/03 01:52:18;;;;;;;;;;;;;;;0.78;100.00;98284.14;1649807;87;21838;-73
2022/01/03 01:54:51;;;;;;;;;;;;;;;0.79;100.00;98284.41;1649671;87;20126;-73
2022/01/03 01:57:19;;;;;;;;;;;;;;;0.81;100.00;98287.63;1642455;87;20082;-73
2022/01/03 02:00:09;;;;;;;;;;;;;;;0.85;100.00;98279.22;1649338;87;20103;-71
2022/01/03 02:02:56;;;;;;;;;;;;;;;0.88;100.00;98249.74;1649818;87;20101;-72
2022/01/03 02:05:40;;;;;;;;;;;;;;;0.91;100.00;98259.17;1613788;87;20612;-71
2022/01/03 02:08:16;;;;;;;;;;;;;;;0.92;100.00;98273.75;1629247;87;20430;-71
2022/01/03 02:10:52;;;;;;;;;;;;;;;0.95;100.00;98269.13;1650049;87;20106;-71
2022/01/03 02:13:22;;;;;;;;;;;;;;;0.97;100.00;98262.90;1648813;85;20106;-71
2022/01/03 02:15:57;;;;;;;;;;;;;;;1.01;100.00;98250.17;1650069;87;20099;-71
2022/01/03 02:18:18;;;;;;;;;;;;;;;1.03;100.00;98241.23;1648929;87;21825;-71
2022/01/03 02:20:44;;;;;;;;;;;;;;;1.08;100.00;98232.53;1649937;86;20449;-71
2022/01/03 02:23:11;;;;;;;;;;;;;;;1.13;100.00;98230.33;1649795;87;20156;-71
2022/01/03 02:25:39;;;;;;;;;;;;;;;1.16;100.00;98217.02;1650007;85;20091;-72
2022/01/03 02:28:06;;;;;;;;;;;;;;;1.20;100.00;98210.48;1629035;87;20148;-71
2022/01/03 02:30:35;;;;;;;;;;;;;;;1.21;100.00;98230.47;1649835;87;20102;-71
2022/01/03 02:33:03;;;;;;;;;;;;;;;1.24;100.00;98232.61;1649732;87;20115;-72
2022/01/03 02:35:30;;;;;;;;;;;;;;;1.27;100.00;98225.27;1649995;87;20153;-71
2022/01/03 02:37:57;;;;;;;;;;;;;;;1.30;100.00;98212.53;1649734;87;20091;-73
2022/01/03 02:40:23;;;;;;;;;;;;;;;1.33;100.00;98210.61;1650091;87;20114;-73
2022/01/03 02:42:52;;;;;;;;;;;;;;;1.38;100.00;98192.17;1649874;87;21155;-73
2022/01/03 02:45:20;;;;;;;;;;;;;;;1.43;100.00;98177.23;1649884;87;20107;-73
2022/01/03 02:47:49;;;;;;;;;;;;;;;1.48;100.00;98173.66;1649885;86;20095;-73
2022/01/03 02:50:16;;;;;;;;;;;;;;;1.50;100.00;98170.92;1650172;87;20123;-73
2022/01/03 02:52:43;;;;;;;;;;;;;;;1.54;100.00;98165.74;1649833;87;20437;-74
2022/01/03 02:55:09;;;;;;;;;;;;;;;1.57;100.00;98154.34;1650149;86;21106;-73
2022/01/03 02:57:49;;;;;;;;;;;;;;;1.60;100.00;98142.94;1649876;87;20330;-73
2022/01/03 03:00:23;;;;;;;;;;;;;;;1.61;100.00;98131.83;1649248;86;20441;-73
2022/01/03 03:02:50;;;;;;;;;;;;;;;1.65;100.00;98126.64;1649306;87;20202;-73
2022/01/03 03:05:17;;;;;;;;;;;;;;;1.66;100.00;98139.08;1650099;87;20149;-73
2022/01/03 03:07:43;;;;;;;;;;;;;;;1.68;100.00;98141.48;1650034;87;21095;-73
2022/01/03 03:10:12;;;;;;;;;;;;;;;1.70;100.00;98133.88;1650314;87;20138;-72
2022/01/03 03:12:40;;;;;;;;;;;;;;;1.73;100.00;98124.64;1629267;87;20471;-73
2022/01/03 03:15:08;;;;;;;;;;;;;;;1.77;100.00;98128.89;1650105;87;20102;-72
2022/01/03 03:17:37;;;;;;;;;;;;;;;1.78;100.00;98112.36;1649972;87;20094;-75
2022/01/03 03:20:09;;;;;;;;;;;;;;;1.82;100.00;98106.62;1649820;87;21228;-73
2022/01/03 03:22:36;;;;;;;;;;;;;;;1.88;100.00;98099.23;1649824;87;20103;-73
2022/01/03 03:25:12;;;;;;;;;;;;;;;1.91;100.00;98111.63;1649932;87;20103;-73
2022/01/03 03:27:45;;;;;;;;;;;;;;;1.97;100.00;98100.97;1649819;87;20228;-74
2022/01/03 03:30:21;;;;;;;;;;;;;;;2.04;100.00;98094.38;1629177;87;20106;-72
2022/01/03 03:32:50;;;;;;;;;;;;;;;2.12;100.00;98091.00;1650047;87;21821;-71
2022/01/03 03:35:17;;;;;;;;;;;;;;;2.20;100.00;98077.59;1649805;87;20091;-71
2022/01/03 03:37:44;;;;;;;;;;;;;;;2.29;100.00;98089.91;1649949;87;20103;-71
2022/01/03 03:40:11;;;;;;;;;;;;;;;2.36;100.00;98080.02;1649859;87;20119;-73
2022/01/03 03:42:38;;;;;;;;;;;;;;;2.42;100.00;98074.21;1650150;87;20426;-73
2022/01/03 03:45:07;;;;;;;;;;;;;;;2.49;100.00;98082.75;1649931;87;20531;-72
2022/01/03 03:47:34;;;;;;;;;;;;;;;2.53;100.00;98078.90;1650039;86;20127;-72
2022/01/03 03:50:01;;;;;;;;;;;;;;;2.54;100.00;98069.12;1649864;87;20103;-72
2022/01/03 03:52:27;;;;;;;;;;;;;;;2.55;100.00;98073.43;1650079;87;20157;-71
2022/01/03 03:54:54;;;;;;;;;;;;;;;2.57;100.00;98061.75;1649871;87;20102;-71
2022/01/03 03:57:22;;;;;;;;;;;;;;;2.59;100.00;98059.55;1650037;85;21466;-72
2022/01/03 03:59:48;;;;;;;;;;;;;;;2.60;100.00;98048.16;1649946;87;20119;-71
2022/01/03 04:02:15;;;;;;;;;;;;;;;2.61;100.00;98038.92;1649978;87;20442;-72
2022/01/03 04:04:41;;;;;;;;;;;;;;;2.62;100.00;98033.20;1649795;87;20150;-73
2022/01/03 04:07:08;;;;;;;;;;;;;;;2.61;100.00;98020.77;1649900;87;20139;-72
2022/01/03 04:09:34;;;;;;;;;;;;;;;2.59;100.00;98018.91;1649868;87;21524;-71
2022/01/03 04:12:01;;;;;;;;;;;;;;;2.58;100.00;98021.36;1650173;87;20090;-71
2022/01/03 04:14:29;;;;;;;;;;;;;;;2.56;100.00;98018.15;1649961;87;20090;-72
2022/01/03 04:16:56;;;;;;;;;;;;;;;2.50;100.00;98019.34;1650102;87;20200;-72
2022/01/03 04:19:22;;;;;;;;;;;;;;;2.44;100.00;98010.27;1649803;87;20150;-71
2022/01/03 04:21:51;;;;;;;;;;;;;;;2.40;100.00;98007.90;1649852;87;21239;-71
2022/01/03 04:24:17;;;;;;;;;;;;;;;2.35;100.00;97997.97;1649761;87;20096;-73
2022/01/03 04:26:45;;;;;;;;;;;;;;;2.31;100.00;97990.22;1649908;87;20102;-72
2022/01/03 04:29:12;;;;;;;;;;;;;;;2.28;100.00;97999.75;1649765;87;20091;-73
2022/01/03 04:31:38;;;;;;;;;;;;;;;2.27;100.00;97995.43;1649856;87;20130;-71
2022/01/03 04:34:05;;;;;;;;;;;;;;;2.27;100.00;97987.86;1629301;87;21129;-71
2022/01/03 04:36:33;;;;;;;;;;;;;;;2.25;100.00;97985.45;1649771;87;20102;-71
2022/01/03 04:38:59;;;;;;;;;;;;;;;2.24;100.00;97991.97;1650028;87;20086;-72
2022/01/03 04:41:25;;;;;;;;;;;;;;;2.27;100.00;97983.80;1649800;87;20595;-72
2022/01/03 04:43:52;;;;;;;;;;;;;;;2.30;100.00;97982.64;1650110;87;20142;-73
2022/01/03 04:46:18;;;;;;;;;;;;;;;2.32;100.00;97970.94;1653144;86;21508;-71
2022/01/03 04:48:44;;;;;;;;;;;;;;;2.33;100.00;97979.86;1653319;85;20122;-71
2022/01/03 04:51:11;;;;;;;;;;;;;;;2.34;100.00;97967.92;1653201;86;20223;-72
2022/01/03 04:53:40;;;;;;;;;;;;;;;2.36;100.00;97977.91;1653082;85;20119;-76
2022/01/03 04:56:13;;;;;;;;;;;;;;;2.41;100.00;97952.08;1651547;87;20115;-72
2022/01/03 04:58:39;;;;;;;;;;;;;;;2.47;100.00;97961.71;1653360;86;21111;-72
2022/01/03 05:01:07;;;;;;;;;;;;;;;2.52;100.00;97964.88;1649978;86;20138;-73
2022/01/03 05:03:34;;;;;;;;;;;;;;;2.54;100.00;97955.89;1652770;86;20127;-73
2022/01/03 05:06:02;;;;;;;;;;;;;;;2.58;100.00;97946.86;1652778;86;20214;-72
2022/01/03 05:08:30;;;;;;;;;;;;;;;2.60;100.00;97960.91;1652522;86;20157;-74
2022/01/03 05:11:01;;;;;;;;;;;;;;;2.61;100.00;97960.36;1652767;86;20102;-72
2022/01/03 05:13:30;;;;;;;;;;;;;;;2.63;100.00;97953.53;1653124;87;20141;-71
2022/01/03 05:15:58;;;;;;;;;;;;;;;2.65;100.00;97949.97;1653215;87;20102;-72
2022/01/03 05:18:25;;;;;;;;;;;;;;;2.68;100.00;97965.37;1653094;87;20102;-72
2022/01/03 05:20:52;;;;;;;;;;;;;;;2.69;100.00;97955.58;1653070;87;20153;-72
2022/01/03 05:23:19;;;;;;;;;;;;;;;2.72;100.00;97947.41;1653108;86;21091;-72
2022/01/03 05:25:46;;;;;;;;;;;;;;;2.73;100.00;97955.23;1653062;86;20102;-72
2022/01/03 05:28:13;;;;;;;;;;;;;;;2.75;100.00;97947.59;1653091;86;20135;-72
2022/01/03 05:30:40;;;;;;;;;;;;;;;2.79;100.00;97947.80;1653082;86;20130;-71
2022/01/03 05:33:08;;;;;;;;;;;;;;;2.81;100.00;97930.68;1653124;86;20102;-72
2022/01/03 05:35:35;;;;;;;;;;;;;;;2.84;100.00;97923.30;1653378;87;21472;-71
2022/01/03 05:38:03;;;;;;;;;;;;;;;2.86;100.00;97923.80;1653141;86;20470;-71
2022/01/03 05:40:30;;;;;;;;;;;;;;;2.89;100.00;97917.73;1653166;86;20241;-71
2022/01/03 05:42:57;;;;;;;;;;;;;;;2.92;100.00;97914.41;1653117;87;20179;-71
2022/01/03 05:45:24;;;;;;;;;;;;;;;2.96;100.00;97927.61;1653136;86;20094;-72
2022/01/03 05:47:52;;;;;;;;;;;;;;;2.99;100.00;97924.28;1653180;87;21167;-72
2022/01/03 05:50:19;;;;;;;;;;;;;;;3.02;100.00;97922.31;1653432;87;20127;-72
2022/01/03 05:52:46;;;;;;;;;;;;;;;3.07;100.00;97929.53;1632648;87;20099;-72
2022/01/03 05:55:13;;;;;;;;;;;;;;;3.10;100.00;97933.80;1653334;87;20457;-73
2022/01/03 05:57:43;;;;;;;;;;;;;;;3.14;100.00;97931.27;1653105;86;20126;-74
2022/01/03 06:00:14;;;;;;;;;;;;;;;3.18;100.00;97929.00;1653150;86;21181;-73
2022/01/03 06:02:43;;;;;;;;;;;;;;;3.22;100.00;97935.97;1653133;87;20151;-71
2022/01/03 06:05:19;;;;;;;;;;;;;;;3.25;100.00;97918.53;1653155;87;20476;-72
2022/01/03 06:07:41;;;;;;;;;;;;;;;3.31;100.00;97924.64;1632055;87;20119;-72
2022/01/03 06:10:09;;;;;;;;;;;;;;;3.38;100.00;97914.72;1653266;87;20095;-73
2022/01/03 06:12:38;;;;;;;;;;;;;;;3.44;100.00;97921.06;1653132;86;20090;-73
2022/01/03 06:15:05;;;;;;;;;;;;;;;3.50;100.00;97917.09;1653129;87;20090;-72
2022/01/03 06:17:32;;;;;;;;;;;;;;;3.56;100.00;97910.98;1632772;87;20090;-72
2022/01/03 06:19:58;;;;;;;;;;;;;;;3.60;100.00;97916.03;1653301;87;20794;-72
2022/01/03 06:22:25;;;;;;;;;;;;;;;3.66;100.00;97918.88;1653251;86;20454;-72
2022/01/03 06:24:54;;;;;;;;;;;;;;;3.72;100.00;97919.55;1653111;86;21244;-72
2022/01/03 06:27:21;;;;;;;;;;;;;;;3.78;100.00;97924.53;1653152;86;20140;-73
2022/01/03 06:29:47;;;;;;;;;;;;;;;3.82;100.00;97918.73;1653231;86;20433;-72
2022/01/03 06:32:14;;;;;;;;;;;;;;;3.85;100.00;97927.61;1653283;86;20441;-72
2022/01/03 06:34:42;;;;;;;;;;;;;;;3.90;100.00;97939.70;1653256;87;20130;-71
2022/01/03 06:37:09;;;;;;;;;;;;;;;3.92;100.00;97933.40;1653465;86;20983;-71
2022/01/03 06:39:37;;;;;;;;;;;;;;;3.95;100.00;97918.41;1651751;86;20090;-72
2022/01/03 06:42:04;;;;;;;;;;;;;;;3.98;100.00;97919.94;1633082;87;20090;-72
2022/01/03 06:44:30;;;;;;;;;;;;;;;4.02;100.00;97919.31;1653252;86;20115;-72
2022/01/03 06:46:56;;;;;;;;;;;;;;;4.07;100.00;97912.36;1653591;86;20110;-73
2022/01/03 06:49:23;;;;;;;;;;;;;;;4.10;100.00;97916.61;1653274;87;21488;-73
2022/01/03 06:51:49;;;;;;;;;;;;;;;4.11;100.00;97916.05;1653153;86;20159;-72
2022/01/03 06:54:16;;;;;;;;;;;;;;;4.12;100.00;97927.96;1653176;86;20115;-72
2022/01/03 06:56:44;;;;;;;;;;;;;;;4.14;100.00;97919.50;1653057;86;20434;-72
2022/01/03 06:59:10;;;;;;;;;;;;;;;4.13;100.00;97912.47;1653219;87;20113;-72
2022/01/03 07:01:37;;;;;;;;;;;;;;;4.15;100.00;97909.69;1653261;87;21543;-71
2022/01/03 07:04:04;;;;;;;;;;;;;;;4.17;100.00;97908.02;1653159;87;20126;-71
2022/01/03 07:06:32;;;;;;;;;;;;;;;4.19;100.00;97908.50;1653276;85;20111;-71
2022/01/03 07:08:58;;;;;;;;;;;;;;;4.22;100.00;97910.59;1653247;87;20126;-72
2022/01/03 07:11:25;;;;;;;;;;;;;;;4.23;100.00;97905.41;1653429;86;20079;-71
2022/01/03 07:14:03;;;;;;;;;;;;;;;4.26;100.00;97905.58;1653373;87;21117;-72
2022/01/03 07:19:06;;;;;;;;;;;;;;;4.31;100.00;97891.85;1653197;87;20147;-71
2022/01/03 07:21:33;;;;;;;;;;;;;;;4.34;100.00;97893.70;1653254;86;20444;-71
2022/01/03 07:24:01;;;;;;;;;;;;;;;4.36;100.00;97897.70;1653206;87;20126;-71
2022/01/03 07:26:27;;;;;;;;;;;;;;;4.39;100.00;97891.64;1653305;85;21524;-71
2022/01/03 07:28:55;;;;;;;;;;;;;;;4.40;100.00;97883.73;1653149;87;38567;-71
2022/01/03 07:31:22;;;;;;;;;;;;;;;4.45;100.00;97899.08;1653186;87;20090;-71
2022/01/03 07:33:48;;;;;;;;;;;;;;;4.52;100.00;97888.55;1653213;86;20793;-71
2022/01/03 07:36:15;;;;;;;;;;;;;;;4.58;100.00;97879.14;1653211;87;20433;-71
2022/01/03 07:38:46;;;;;;;;;;;;;;;4.62;100.00;97889.62;1653186;87;21122;-71
2022/01/03 07:41:11;;;;;;;;;;;;;;;4.69;100.00;97874.17;1653058;86;20126;-71
2022/01/03 07:43:37;;;;;;;;;;;;;;;4.75;100.00;97872.91;1653470;87;20106;-71
2022/01/03 07:46:03;;;;;;;;;;;;;;;4.81;100.00;97874.34;1653193;87;20429;-70
2022/01/03 07:48:30;;;;;;;;;;;;;;;4.88;100.00;97877.40;1653132;87;20126;-71
2022/01/03 07:50:57;;;;;;;;;;;;;;;4.92;100.00;97874.28;1653252;87;21535;-71
2022/01/03 07:53:23;;;;;;;;;;;;;;;4.97;100.00;97872.77;1653444;86;20122;-72
2022/01/03 07:55:49;;;;;;;;;;;;;;;5.03;100.00;97867.41;1653151;87;20103;-71
2022/01/03 07:58:16;;;;;;;;;;;;;;;5.07;100.00;97867.01;1653370;87;20777;-73
2022/01/03 08:00:44;;;;;;;;;;;;;;;5.11;100.00;97872.61;1653185;87;20449;-71
2022/01/03 08:03:10;;;;;;;;;;;;;;;5.14;100.00;97865.97;1653444;86;21518;-71
2022/01/03 08:05:37;;;;;;;;;;;;;;;5.17;100.00;97863.97;1653169;87;20134;-71
2022/01/03 08:08:05;;;;;;;;;;;;;;;5.22;100.00;97856.17;1653445;87;20086;-70
2022/01/03 08:10:33;;;;;;;;;;;;;;;5.24;100.00;97849.29;1653253;86;20481;-70
2022/01/03 08:12:59;;;;;;;;;;;;;;;5.29;100.00;97855.12;1653497;87;20078;-70
2022/01/03 08:15:26;;;;;;;;;;;;;;;5.35;100.00;97847.04;1653237;87;21772;-74
2022/01/03 08:17:52;;;;;;;;;;;;;;;5.39;100.00;97841.75;1650478;87;20109;-70
2022/01/03 08:20:20;;;;;;;;;;;;;;;5.44;100.00;97836.14;1641214;87;20092;-71
2022/01/03 08:22:48;;;;;;;;;;;;;;;5.49;100.00;97846.86;1626512;88;20132;-70
2022/01/03 08:25:15;;;;;;;;;;;;;;;5.54;100.00;97845.33;1626568;88;20104;-71
2022/01/03 08:27:41;;;;;;;;;;;;;;;5.61;100.00;97845.63;1626539;88;21606;-71
2022/01/03 08:30:08;;;;;;;;;;;;;;;5.69;100.00;97831.75;1626536;88;20486;-73
2022/01/03 08:32:36;;;;;;;;;;;;;;;5.77;100.00;97820.84;1626474;87;20503;-72
2022/01/03 08:35:03;;;;;;;;;;;;;;;5.84;100.00;97819.74;1606663;88;20152;-72
2022/01/03 08:37:29;;;;;;;;;;;;;;;5.91;100.00;97830.96;1626573;88;20125;-73
2022/01/03 08:39:57;;;;;;;;;;;;;;;5.96;100.00;97809.55;1626533;88;21552;-72
2022/01/03 08:42:25;;;;;;;;;;;;;;;6.03;100.00;97818.58;1626448;88;20089;-72
2022/01/03 08:44:51;;;;;;;;;;;;;;;6.06;100.00;97807.83;1626709;88;20133;-70
2022/01/03 08:47:18;;;;;;;;;;;;;;;6.09;100.00;97805.01;1626577;88;20105;-70
2022/01/03 08:49:44;;;;;;;;;;;;;;;6.10;100.00;97813.41;1635487;87;20084;-70
2022/01/03 08:52:10;;;;;;;;;;;;;;;6.11;100.00;97804.12;1638322;87;22241;-70
2022/01/03 08:54:37;;;;;;;;;;;;;;;6.12;100.00;97820.14;1640110;87;20144;-70
2022/01/03 08:57:04;;;;;;;;;;;;;;;6.16;100.00;97810.74;1628343;86;20153;-70
2022/01/03 08:59:30;;;;;;;;;;;;;;;6.21;100.00;97800.45;1626652;88;20195;-74
2022/01/03 09:01:56;;;;;;;;;;;;;;;6.31;100.00;97793.83;1626597;88;20105;-71
2022/01/03 09:04:22;;;;;;;;;;;;;;;6.38;100.00;97783.73;1642356;87;21121;-72
2022/01/03 09:06:50;;;;;;;;;;;;;;;6.44;100.00;97789.23;1638145;87;20092;-72
2022/01/03 09:09:16;;;;;;;;;;;;;;;6.48;99.43;97773.24;1626492;88;20124;-71
2022/01/03 09:11:42;;;;;;;;;;;;;;;6.57;99.67;97762.28;1626486;88;20269;-69
2022/01/03 09:14:09;;;;;;;;;;;;;;;6.65;99.39;97774.25;1626542;87;20108;-69
2022/01/03 09:16:35;;;;;;;;;;;;;;;6.75;98.62;97760.22;1626435;88;21983;-70
2022/01/03 09:19:02;;;;;;;;;;;;;;;6.81;97.99;97756.16;1626344;88;20109;-70
2022/01/03 09:21:29;;;;;;;;;;;;;;;6.87;97.75;97754.81;1626522;88;20136;-70
2022/01/03 09:24:17;;;;;;;;;;;;;;;6.91;97.56;97738.81;1636626;87;20146;-75
2022/01/03 09:29:08;;;;;;;;;;;;;;;7.00;96.70;97748.25;1639118;87;21580;-72
2022/01/03 09:31:36;;;;;;;;;;;;;;;7.05;96.53;97741.22;1619167;87;20335;-73
2022/01/03 09:34:05;;;;;;;;;;;;;;;7.08;95.37;97720.65;1639112;87;20102;-71
2022/01/03 09:36:32;;;;;;;;;;;;;;;7.10;95.51;97730.09;1638527;87;20520;-71
2022/01/03 09:38:58;;;;;;;;;;;;;;;7.09;94.70;97719.52;1637055;87;20248;-72
2022/01/03 09:41:25;;;;;;;;;;;;;;;7.08;94.64;97726.91;1639898;87;21938;-71
2022/01/03 09:43:58;;;;;;;;;;;;;;;7.08;94.85;97718.72;1638661;87;20156;-71
2022/01/03 09:46:39;;;;;;;;;;;;;;;7.09;94.61;97718.16;1637347;87;20144;-70
2022/01/03 09:49:07;;;;;;;;;;;;;;;7.08;94.22;97705.08;1637678;87;20159;-73
2022/01/03 09:51:34;;;;;;;;;;;;;;;7.10;93.46;97709.63;1637806;86;20150;-71
2022/01/03 09:54:03;;;;;;;;;;;;;;;7.12;93.68;97701.11;1639876;87;21541;-72
2022/01/03 09:56:32;;;;;;;;;;;;;;;7.12;93.14;97698.38;1637882;85;20092;-71
2022/01/03 09:59:00;;;;;;;;;;;;;;;7.13;93.43;97693.15;1636968;86;20212;-72
2022/01/03 10:01:28;;;;;;;;;;;;;;;7.22;92.51;97702.84;1639334;85;20535;-73
2022/01/03 10:03:54;;;;;;;;;;;;;;;7.37;92.99;97699.22;1619027;87;20166;-73
2022/01/03 10:06:21;;;;;;;;;;;;;;;7.45;91.54;97689.56;1617046;87;21816;-72
2022/01/03 10:08:47;;;;;;;;;;;;;;;7.49;91.18;97693.78;1644024;86;20173;-70
2022/01/03 10:11:14;;;;;;;;;;;;;;;7.51;90.86;97684.68;1645201;87;20161;-71
2022/01/03 10:13:40;;;;;;;;;;;;;;;7.54;91.11;97681.23;1625097;88;20155;-74
2022/01/03 10:16:08;;;;;;;;;;;;;;;7.65;90.78;97687.05;1623973;88;20105;-76
2022/01/03 10:18:34;;;;;;;;;;;;;;;7.88;89.43;97676.69;1604904;88;22169;-75
2022/01/03 10:21:01;;;;;;;;;;;;;;;7.98;88.67;97695.91;1624959;87;20439;-75
2022/01/03 10:23:27;;;;;;;;;;;;;;;7.98;87.90;97682.25;1605106;88;20168;-75
2022/01/03 10:25:56;;;;;;;;;;;;;;;7.93;87.25;97680.55;1625078;87;20119;-76
2022/01/03 10:28:37;;;;;;;;;;;;;;;7.91;88.53;97657.45;1621722;88;20141;-77
2022/01/03 10:30:56;;;;;;;;;;;;;;;7.93;88.67;97664.16;1623381;87;22195;-69
2022/01/03 10:33:23;;;;;;;;;;;;;;;8.06;88.39;97672.34;1625102;88;20408;-70
2022/01/03 10:35:52;;;;;;;;;;;;;;;8.14;87.34;97659.08;1625040;88;20104;-70
2022/01/03 10:38:36;;;;;;;;;;;;;;;8.11;86.72;97652.94;1626335;87;20080;-69
2022/01/03 10:41:17;;;;;;;;;;;;;;;8.02;86.80;97656.41;1639150;87;20137;-71
2022/01/03 10:43:46;;;;;;;;;;;;;;;7.89;87.19;97653.69;1639401;87;21124;-69
2022/01/03 10:46:22;;;;;;;;;;;;;;;7.80;87.38;97655.75;1639497;87;20169;-72
2022/01/03 10:48:49;;;;;;;;;;;;;;;7.71;88.18;97656.44;1639088;87;20090;-69
2022/01/03 10:51:28;;;;;;;;;;;;;;;7.63;88.21;97654.62;1639943;87;20170;-70
2022/01/03 10:53:55;;;;;;;;;;;;;;;7.57;88.68;97649.95;1640093;87;20141;-69
2022/01/03 10:56:28;;;;;;;;;;;;;;;7.51;88.82;97649.95;1637460;86;22027;-70
2022/01/03 10:59:02;;;;;;;;;;;;;;;7.49;89.12;97647.36;1636992;86;20290;-70
2022/01/03 11:01:30;;;;;;;;;;;;;;;7.46;89.00;97648.84;1638303;86;20102;-68
2022/01/03 11:04:00;;;;;;;;;;;;;;;7.44;88.77;97636.10;1640078;87;20082;-68
2022/01/03 11:06:50;;;;;;;;;;;;;;;7.45;88.97;97641.00;1638321;87;20104;-69
2022/01/03 11:11:42;;;;;;;;;;;;;;;7.44;88.88;97650.32;1639742;86;20129;-69
2022/01/03 11:14:33;;;;;;;;;;;;;;;7.41;88.88;97644.17;1637933;86;20165;-69
2022/01/03 11:17:23;;;;;;;;;;;;;;;7.38;89.18;97632.00;1639270;87;20127;-69
2022/01/03 11:19:51;;;;;;;;;;;;;;;7.37;89.09;97639.97;1637726;86;20162;-68
2022/01/03 11:22:40;;;;;;;;;;;;;;;7.36;89.09;97633.48;1639038;87;21531;-69
2022/01/03 11:25:08;;;;;;;;;;;;;;;7.35;89.44;97645.54;1646341;86;20123;-69
2022/01/03 11:27:38;;;;;;;;;;;;;;;7.32;89.47;97649.74;1640059;87;20519;-70
2022/01/03 11:30:06;;;;;;;;;;;;;;;7.31;89.64;97638.59;1646050;85;20127;-68
2022/01/03 11:32:39;;;;;;;;;;;;;;;7.28;89.84;97637.91;1653123;86;20473;-69
2022/01/03 11:35:06;;;;;;;;;;;;;;;7.26;90.05;97630.63;1633330;87;21819;-69
2022/01/03 11:37:35;;;;;;;;;;;;;;;7.24;90.09;97632.34;1653213;86;20441;-68
2022/01/03 11:40:03;;;;;;;;;;;;;;;7.23;90.25;97631.31;1646292;85;20474;-77
2022/01/03 11:42:32;;;;;;;;;;;;;;;7.21;90.31;97625.39;1637169;87;20219;-74
2022/01/03 11:44:59;;;;;;;;;;;;;;;7.21;90.35;97634.38;1626766;87;20101;-73
2022/01/03 11:47:29;;;;;;;;;;;;;;;7.21;90.23;97624.83;1628647;87;21551;-74
2022/01/03 11:49:55;;;;;;;;;;;;;;;7.22;90.04;97621.53;1637862;86;20805;-69
2022/01/03 11:52:22;;;;;;;;;;;;;;;7.22;90.10;97623.69;1626542;88;20189;-73
2022/01/03 11:54:51;;;;;;;;;;;;;;;7.22;89.95;97622.33;1636596;87;20161;-69
2022/01/03 11:57:39;;;;;;;;;;;;;;;7.20;89.92;97609.59;1653154;86;20449;-81
2022/01/03 12:05:54;;;;;;;;;;;;;;;7.18;89.66;97615.16;1653171;85;20126;-70
2022/01/03 12:08:29;;;;;;;;;;;;;;;7.18;89.11;97611.86;1653119;87;20130;-71
2022/01/03 12:11:00;;;;;;;;;;;;;;;7.21;89.91;97603.00;1651450;86;20154;-74
2022/01/03 12:13:48;;;;;;;;;;;;;;;7.21;89.25;97604.36;1653128;85;23001;-76
2022/01/03 12:16:15;;;;;;;;;;;;;;;7.21;88.93;97603.56;1653096;85;20094;-80
2022/01/03 12:18:57;;;;;;;;;;;;;;;7.20;88.77;97606.86;1653099;85;20461;-74
2022/01/03 12:21:44;;;;;;;;;;;;;;;7.20;88.17;97593.78;1653060;87;20110;-73
2022/01/03 12:24:35;;;;;;;;;;;;;;;7.21;88.10;97602.20;1650675;86;20111;-76
2022/01/03 12:27:14;;;;;;;;;;;;;;;7.20;87.83;97598.67;1653432;87;21102;-75
2022/01/03 12:29:58;;;;;;;;;;;;;;;7.20;87.28;97604.13;1653063;86;20123;-72
2022/01/03 12:32:28;;;;;;;;;;;;;;;7.21;86.48;97603.00;1653120;86;20135;-71
2022/01/03 12:35:15;;;;;;;;;;;;;;;7.27;85.43;97594.02;1653221;86;20457;-70
2022/01/03 12:37:56;;;;;;;;;;;;;;;7.34;85.41;97599.70;1653358;86;20457;-73
2022/01/03 12:40:30;;;;;;;;;;;;;;;7.37;85.17;97606.41;1653264;86;21411;-68
2022/01/03 12:43:09;;;;;;;;;;;;;;;7.39;84.62;97605.50;1653056;85;20154;-73
2022/01/03 12:45:46;;;;;;;;;;;;;;;7.40;84.44;97605.16;1653348;85;20199;-72
2022/01/03 12:48:18;;;;;;;;;;;;;;;7.43;84.24;97580.48;1653123;87;20098;-76
2022/01/03 12:50:55;;;;;;;;;;;;;;;7.47;83.95;97596.41;1632851;87;20205;-68
2022/01/03 12:53:39;;;;;;;;;;;;;;;7.50;82.78;97591.63;1653114;85;20110;-76
2022/01/03 12:56:12;;;;;;;;;;;;;;;7.53;82.75;97591.70;1653114;86;20107;-69
2022/01/03 12:58:48;;;;;;;;;;;;;;;7.56;82.61;97605.23;1653108;86;20179;-80
2022/01/03 13:01:21;;;;;;;;;;;;;;;7.55;82.37;97596.25;1653081;87;20446;-67
2022/01/03 13:03:50;;;;;;;;;;;;;;;7.56;81.89;97601.14;1653287;87;20457;-69
2022/01/03 13:06:22;;;;;;;;;;;;;;;7.58;81.85;97600.23;1653108;86;21896;-68
2022/01/03 13:09:06;;;;;;;;;;;;;;;7.58;81.41;97607.06;1653084;87;20106;-67
2022/01/03 13:11:47;;;;;;;;;;;;;;;7.56;81.77;97599.78;1653266;86;20437;-68
2022/01/03 13:14:20;;;;;;;;;;;;;;;7.52;82.19;97598.88;1653406;87;20126;-70
2022/01/03 13:16:55;;;;;;;;;;;;;;;7.49;82.50;97607.78;1653207;86;20127;-73